sensor_id;sensor_type;location;lat;lon;timestamp;pressure;altitude;pressure_sealevel;temperature;humidity
61128;BME280;47013;42.664;23.242;2023-06-22T00:01:15;94441.31;;;18.46;86.79
61128;BME280;47013;42.664;23.242;2023-06-22T00:03:40;94452.31;;;18.46;86.47
61128;BME280;47013;42.664;23.242;2023-06-22T00:06:05;94453.06;;;18.46;86.05
61128;BME280;47013;42.664;23.242;2023-06-22T00:08:31;94441.00;;;18.44;86.91
61128;BME280;47013;42.664;23.242;2023-06-22T00:10:56;94445.72;;;18.43;86.95
61128;BME280;47013;42.664;23.242;2023-06-22T00:13:21;94448.47;;;18.43;86.26
61128;BME280;47013;42.664;23.242;2023-06-22T00:15:46;94442.97;;;18.43;86.90
61128;BME280;47013;42.664;23.242;2023-06-22T00:18:12;94438.84;;;18.39;86.53
61128;BME280;47013;42.664;23.242;2023-06-22T00:20:38;94440.91;;;18.35;84.65
61128;BME280;47013;42.664;23.242;2023-06-22T00:23:04;94432.34;;;18.33;87.08
61128;BME280;47013;42.664;23.242;2023-06-22T00:25:34;94427.81;;;18.04;81.04
61128;BME280;47013;42.664;23.242;2023-06-22T00:27:59;94425.81;;;18.05;81.27
61128;BME280;47013;42.664;23.242;2023-06-22T00:30:24;94425.69;;;18.08;84.61
61128;BME280;47013;42.664;23.242;2023-06-22T00:32:50;94422.63;;;18.06;84.08
61128;BME280;47013;42.664;23.242;2023-06-22T00:35:15;94426.59;;;18.05;83.01
61128;BME280;47013;42.664;23.242;2023-06-22T00:37:40;94423.09;;;18.05;84.50
61128;BME280;47013;42.664;23.242;2023-06-22T00:40:07;94422.97;;;18.08;84.32
61128;BME280;47013;42.664;23.242;2023-06-22T00:42:36;94422.50;;;18.10;84.46
61128;BME280;47013;42.664;23.242;2023-06-22T00:45:01;94425.25;;;18.10;84.79
61128;BME280;47013;42.664;23.242;2023-06-22T00:47:26;94431.63;;;18.07;83.09
61128;BME280;47013;42.664;23.242;2023-06-22T00:49:52;94425.81;;;18.05;82.55
61128;BME280;47013;42.664;23.242;2023-06-22T00:52:18;94428.56;;;18.05;82.44
61128;BME280;47013;42.664;23.242;2023-06-22T00:54:46;94426.28;;;18.03;82.54
61128;BME280;47013;42.664;23.242;2023-06-22T00:57:13;94419.25;;;18.02;82.52
61128;BME280;47013;42.664;23.242;2023-06-22T00:59:42;94415.75;;;18.02;84.16
61128;BME280;47013;42.664;23.242;2023-06-22T01:02:07;94422.13;;;17.98;86.24
61128;BME280;47013;42.664;23.242;2023-06-22T01:04:36;94435.47;;;17.96;87.15
61128;BME280;47013;42.664;23.242;2023-06-22T01:07:25;94441.41;;;17.95;88.74
61128;BME280;47013;42.664;23.242;2023-06-22T01:12:21;94438.66;;;17.95;89.36
61128;BME280;47013;42.664;23.242;2023-06-22T01:14:47;94445.03;;;17.92;89.29
61128;BME280;47013;42.664;23.242;2023-06-22T01:17:17;94446.06;;;17.85;89.00
61128;BME280;47013;42.664;23.242;2023-06-22T01:19:50;94450.09;;;17.81;89.14
61128;BME280;47013;42.664;23.242;2023-06-22T01:22:21;94436.63;;;17.74;86.33
61128;BME280;47013;42.664;23.242;2023-06-22T01:27:46;94433.53;;;17.72;87.03
61128;BME280;47013;42.664;23.242;2023-06-22T01:30:14;94431.56;;;17.72;86.09
61128;BME280;47013;42.664;23.242;2023-06-22T01:32:40;94439.81;;;17.72;85.25
61128;BME280;47013;42.664;23.242;2023-06-22T01:35:06;94441.34;;;17.73;85.39
61128;BME280;47013;42.664;23.242;2023-06-22T01:37:33;94435.06;;;17.73;85.86
61128;BME280;47013;42.664;23.242;2023-06-22T01:39:59;94442.88;;;17.74;86.56
61128;BME280;47013;42.664;23.242;2023-06-22T01:42:24;94451.09;;;17.74;86.61
61128;BME280;47013;42.664;23.242;2023-06-22T01:44:51;94449.22;;;17.71;86.60
61128;BME280;47013;42.664;23.242;2023-06-22T01:47:17;94449.66;;;17.69;87.47
61128;BME280;47013;42.664;23.242;2023-06-22T01:49:42;94444.16;;;17.69;88.21
61128;BME280;47013;42.664;23.242;2023-06-22T01:52:08;94449.28;;;17.67;87.55
61128;BME280;47013;42.664;23.242;2023-06-22T01:54:33;94445.03;;;17.66;88.40
61128;BME280;47013;42.664;23.242;2023-06-22T01:56:59;94450.19;;;17.64;88.20
61128;BME280;47013;42.664;23.242;2023-06-22T01:59:25;94452.59;;;17.62;88.25
61128;BME280;47013;42.664;23.242;2023-06-22T02:02:04;94462.78;;;17.62;88.49
61128;BME280;47013;42.664;23.242;2023-06-22T02:05:13;94464.44;;;17.59;88.56
61128;BME280;47013;42.664;23.242;2023-06-22T02:07:19;94468.81;;;17.57;88.41
61128;BME280;47013;42.664;23.242;2023-06-22T02:09:46;94473.97;;;17.55;88.76
61128;BME280;47013;42.664;23.242;2023-06-22T02:12:16;94479.78;;;17.57;88.99
61128;BME280;47013;42.664;23.242;2023-06-22T02:14:42;94470.00;;;17.56;88.76
61128;BME280;47013;42.664;23.242;2023-06-22T02:17:08;94463.75;;;17.55;89.08
61128;BME280;47013;42.664;23.242;2023-06-22T02:19:37;94460.69;;;17.53;89.23
61128;BME280;47013;42.664;23.242;2023-06-22T02:22:03;94458.06;;;17.50;88.78
61128;BME280;47013;42.664;23.242;2023-06-22T02:24:28;94456.53;;;17.49;90.03
61128;BME280;47013;42.664;23.242;2023-06-22T02:26:56;94453.47;;;17.47;90.51
61128;BME280;47013;42.664;23.242;2023-06-22T02:29:22;94455.84;;;17.45;91.39
61128;BME280;47013;42.664;23.242;2023-06-22T02:31:47;94452.34;;;17.44;90.61
61128;BME280;47013;42.664;23.242;2023-06-22T02:34:13;94462.06;;;17.20;88.75
61128;BME280;47013;42.664;23.242;2023-06-22T02:36:43;94453.50;;;17.18;89.63
61128;BME280;47013;42.664;23.242;2023-06-22T02:39:15;94453.84;;;17.20;91.43
61128;BME280;47013;42.664;23.242;2023-06-22T02:41:40;94457.69;;;17.22;91.09
61128;BME280;47013;42.664;23.242;2023-06-22T02:44:06;94451.88;;;17.20;91.55
61128;BME280;47013;42.664;23.242;2023-06-22T02:46:31;94452.28;;;17.19;92.12
61128;BME280;47013;42.664;23.242;2023-06-22T02:48:56;94446.03;;;17.18;92.71
61128;BME280;47013;42.664;23.242;2023-06-22T02:51:21;94452.41;;;17.15;93.00
61128;BME280;47013;42.664;23.242;2023-06-22T02:53:47;94451.97;;;17.17;92.30
61128;BME280;47013;42.664;23.242;2023-06-22T02:56:13;94447.59;;;17.19;92.69
61128;BME280;47013;42.664;23.242;2023-06-22T02:58:38;94454.63;;;17.20;92.23
61128;BME280;47013;42.664;23.242;2023-06-22T03:01:06;94461.19;;;17.23;92.31
61128;BME280;47013;42.664;23.242;2023-06-22T03:03:32;94446.63;;;17.26;92.87
61128;BME280;47013;42.664;23.242;2023-06-22T03:05:57;94450.47;;;17.28;93.08
61128;BME280;47013;42.664;23.242;2023-06-22T03:08:22;94457.78;;;17.31;93.86
61128;BME280;47013;42.664;23.242;2023-06-22T03:10:47;94467.91;;;17.34;93.87
61128;BME280;47013;42.664;23.242;2023-06-22T03:13:13;94465.50;;;17.36;94.43
61128;BME280;47013;42.664;23.242;2023-06-22T03:15:38;94470.09;;;17.39;94.45
61128;BME280;47013;42.664;23.242;2023-06-22T03:18:03;94468.47;;;17.42;94.80
61128;BME280;47013;42.664;23.242;2023-06-22T03:20:29;94481.41;;;17.42;93.68
61128;BME280;47013;42.664;23.242;2023-06-22T03:22:58;94489.19;;;17.43;94.87
61128;BME280;47013;42.664;23.242;2023-06-22T03:25:23;94480.97;;;17.43;95.06
61128;BME280;47013;42.664;23.242;2023-06-22T03:27:49;94482.09;;;17.46;94.42
61128;BME280;47013;42.664;23.242;2023-06-22T03:30:14;94483.19;;;17.48;94.84
61128;BME280;47013;42.664;23.242;2023-06-22T03:32:39;94485.81;;;17.52;95.46
61128;BME280;47013;42.664;23.242;2023-06-22T03:35:04;94483.72;;;17.56;95.29
61128;BME280;47013;42.664;23.242;2023-06-22T03:37:31;94488.75;;;17.57;95.23
61128;BME280;47013;42.664;23.242;2023-06-22T03:39:56;94489.97;;;17.56;96.19
61128;BME280;47013;42.664;23.242;2023-06-22T03:42:21;94497.00;;;17.57;95.85
61128;BME280;47013;42.664;23.242;2023-06-22T03:44:47;94504.69;;;17.62;96.28
61128;BME280;47013;42.664;23.242;2023-06-22T03:47:12;94499.53;;;17.64;95.97
61128;BME280;47013;42.664;23.242;2023-06-22T03:49:38;94514.69;;;17.69;95.77
61128;BME280;47013;42.664;23.242;2023-06-22T03:52:03;94511.44;;;17.74;96.26
61128;BME280;47013;42.664;23.242;2023-06-22T03:54:29;94518.34;;;17.79;96.33
61128;BME280;47013;42.664;23.242;2023-06-22T03:56:54;94516.25;;;17.83;96.81
61128;BME280;47013;42.664;23.242;2023-06-22T03:59:19;94516.06;;;17.90;96.98
61128;BME280;47013;42.664;23.242;2023-06-22T04:01:45;94503.31;;;17.96;97.60
61128;BME280;47013;42.664;23.242;2023-06-22T04:04:11;94506.41;;;17.98;96.75
61128;BME280;47013;42.664;23.242;2023-06-22T04:06:37;94509.34;;;18.04;97.36
61128;BME280;47013;42.664;23.242;2023-06-22T04:09:02;94504.50;;;18.08;95.55
61128;BME280;47013;42.664;23.242;2023-06-22T04:11:29;94492.25;;;18.12;97.14
61128;BME280;47013;42.664;23.242;2023-06-22T04:13:54;94491.66;;;18.17;97.50
61128;BME280;47013;42.664;23.242;2023-06-22T04:16:19;94484.09;;;18.21;96.76
61128;BME280;47013;42.664;23.242;2023-06-22T04:18:44;94478.94;;;18.23;97.18
61128;BME280;47013;42.664;23.242;2023-06-22T04:21:10;94485.84;;;18.28;97.81
61128;BME280;47013;42.664;23.242;2023-06-22T04:23:35;94480.69;;;18.30;97.85
61128;BME280;47013;42.664;23.242;2023-06-22T04:26:02;94479.69;;;18.37;98.25
61128;BME280;47013;42.664;23.242;2023-06-22T04:28:27;94480.56;;;18.21;98.58
61128;BME280;47013;42.664;23.242;2023-06-22T04:30:52;94476.72;;;18.31;98.23
61128;BME280;47013;42.664;23.242;2023-06-22T04:33:18;94479.78;;;18.33;97.09
61128;BME280;47013;42.664;23.242;2023-06-22T04:35:47;94484.75;;;18.38;95.79
61128;BME280;47013;42.664;23.242;2023-06-22T04:38:12;94488.13;;;18.42;94.62
61128;BME280;47013;42.664;23.242;2023-06-22T04:40:41;94488.53;;;18.53;93.84
61128;BME280;47013;42.664;23.242;2023-06-22T04:43:06;94485.47;;;18.64;94.67
61128;BME280;47013;42.664;23.242;2023-06-22T04:45:32;94496.97;;;18.72;94.43
61128;BME280;47013;42.664;23.242;2023-06-22T04:47:57;94492.03;;;18.79;92.36
61128;BME280;47013;42.664;23.242;2023-06-22T04:50:23;94503.97;;;18.85;93.09
61128;BME280;47013;42.664;23.242;2023-06-22T04:52:48;94499.44;;;18.92;91.74
61128;BME280;47013;42.664;23.242;2023-06-22T04:55:14;94501.50;;;19.00;89.59
61128;BME280;47013;42.664;23.242;2023-06-22T04:57:43;94507.84;;;19.10;89.90
61128;BME280;47013;42.664;23.242;2023-06-22T05:00:13;94503.22;;;19.07;89.64
61128;BME280;47013;42.664;23.242;2023-06-22T05:02:42;94499.63;;;18.97;90.96
61128;BME280;47013;42.664;23.242;2023-06-22T05:05:07;94496.75;;;19.01;92.03
61128;BME280;47013;42.664;23.242;2023-06-22T05:07:36;94497.16;;;19.12;90.50
61128;BME280;47013;42.664;23.242;2023-06-22T05:10:04;94497.53;;;19.23;89.88
61128;BME280;47013;42.664;23.242;2023-06-22T05:12:30;94505.88;;;19.32;88.54
61128;BME280;47013;42.664;23.242;2023-06-22T05:14:55;94498.00;;;19.43;88.24
61128;BME280;47013;42.664;23.242;2023-06-22T05:17:21;94493.44;;;19.50;88.92
61128;BME280;47013;42.664;23.242;2023-06-22T05:19:46;94495.53;;;19.58;88.60
61128;BME280;47013;42.664;23.242;2023-06-22T05:22:15;94496.28;;;19.59;89.76
61128;BME280;47013;42.664;23.242;2023-06-22T05:24:40;94492.69;;;19.71;89.74
61128;BME280;47013;42.664;23.242;2023-06-22T05:27:05;94498.19;;;19.71;90.31
61128;BME280;47013;42.664;23.242;2023-06-22T05:29:31;94496.44;;;19.86;89.44
61128;BME280;47013;42.664;23.242;2023-06-22T05:31:56;94502.56;;;19.90;89.16
61128;BME280;47013;42.664;23.242;2023-06-22T05:34:21;94511.16;;;19.92;88.90
61128;BME280;47013;42.664;23.242;2023-06-22T05:36:47;94508.88;;;20.00;88.54
61128;BME280;47013;42.664;23.242;2023-06-22T05:39:12;94502.47;;;20.03;88.33
61128;BME280;47013;42.664;23.242;2023-06-22T05:41:41;94517.19;;;20.09;87.29
61128;BME280;47013;42.664;23.242;2023-06-22T05:44:08;94520.84;;;20.15;87.03
61128;BME280;47013;42.664;23.242;2023-06-22T05:46:33;94523.81;;;20.21;86.61
61128;BME280;47013;42.664;23.242;2023-06-22T05:48:58;94527.50;;;20.27;85.31
61128;BME280;47013;42.664;23.242;2023-06-22T05:51:23;94531.66;;;20.41;85.57
61128;BME280;47013;42.664;23.242;2023-06-22T05:53:49;94542.13;;;20.46;85.57
61128;BME280;47013;42.664;23.242;2023-06-22T05:56:18;94538.16;;;20.56;85.98
61128;BME280;47013;42.664;23.242;2023-06-22T05:58:43;94540.97;;;20.74;83.44
61128;BME280;47013;42.664;23.242;2023-06-22T06:01:08;94536.84;;;20.79;83.86
61128;BME280;47013;42.664;23.242;2023-06-22T06:03:33;94538.56;;;20.85;83.78
61128;BME280;47013;42.664;23.242;2023-06-22T06:05:59;94533.94;;;20.91;83.32
61128;BME280;47013;42.664;23.242;2023-06-22T06:08:25;94539.78;;;21.03;82.09
61128;BME280;47013;42.664;23.242;2023-06-22T06:10:50;94532.28;;;21.12;84.22
61128;BME280;47013;42.664;23.242;2023-06-22T06:13:18;94520.03;;;21.23;82.37
61128;BME280;47013;42.664;23.242;2023-06-22T06:15:43;94522.50;;;21.30;80.76
61128;BME280;47013;42.664;23.242;2023-06-22T06:18:08;94525.41;;;21.44;78.86
61128;BME280;47013;42.664;23.242;2023-06-22T06:20:34;94513.13;;;21.55;78.92
61128;BME280;47013;42.664;23.242;2023-06-22T06:22:59;94518.34;;;21.62;79.10
61128;BME280;47013;42.664;23.242;2023-06-22T06:25:24;94514.31;;;21.72;79.25
61128;BME280;47013;42.664;23.242;2023-06-22T06:27:51;94516.78;;;21.79;78.30
61128;BME280;47013;42.664;23.242;2023-06-22T06:30:17;94517.66;;;21.94;78.56
61128;BME280;47013;42.664;23.242;2023-06-22T06:32:43;94522.03;;;22.19;77.50
61128;BME280;47013;42.664;23.242;2023-06-22T06:35:09;94510.91;;;22.37;76.75
61128;BME280;47013;42.664;23.242;2023-06-22T06:37:41;94518.69;;;22.48;76.91
61128;BME280;47013;42.664;23.242;2023-06-22T06:40:07;94513.69;;;22.61;75.00
61128;BME280;47013;42.664;23.242;2023-06-22T06:42:39;94511.28;;;22.78;76.89
61128;BME280;47013;42.664;23.242;2023-06-22T06:45:21;94506.63;;;22.93;74.21
61128;BME280;47013;42.664;23.242;2023-06-22T06:47:47;94514.97;;;23.08;73.16
61128;BME280;47013;42.664;23.242;2023-06-22T06:50:13;94510.72;;;23.22;74.42
61128;BME280;47013;42.664;23.242;2023-06-22T06:52:38;94502.84;;;23.44;73.01
61128;BME280;47013;42.664;23.242;2023-06-22T06:55:04;94502.28;;;23.70;70.97
61128;BME280;47013;42.664;23.242;2023-06-22T06:59:37;94501.53;;;24.13;70.38
61128;BME280;47013;42.664;23.242;2023-06-22T07:02:03;94501.53;;;24.13;68.90
61128;BME280;47013;42.664;23.242;2023-06-22T07:04:28;94493.88;;;24.23;68.85
61128;BME280;47013;42.664;23.242;2023-06-22T07:06:54;94495.75;;;24.47;68.71
61128;BME280;47013;42.664;23.242;2023-06-22T07:09:19;94486.00;;;24.71;69.08
61128;BME280;47013;42.664;23.242;2023-06-22T07:11:44;94494.13;;;24.95;67.23
61128;BME280;47013;42.664;23.242;2023-06-22T07:14:10;94491.00;;;25.03;66.80
61128;BME280;47013;42.664;23.242;2023-06-22T07:16:35;94495.91;;;25.13;65.72
61128;BME280;47013;42.664;23.242;2023-06-22T07:19:01;94494.97;;;25.22;63.56
61128;BME280;47013;42.664;23.242;2023-06-22T07:21:26;94500.25;;;25.40;64.33
61128;BME280;47013;42.664;23.242;2023-06-22T07:23:51;94496.34;;;25.52;63.10
61128;BME280;47013;42.664;23.242;2023-06-22T07:26:17;94503.47;;;25.59;62.77
61128;BME280;47013;42.664;23.242;2023-06-22T07:28:42;94502.22;;;25.60;62.47
61128;BME280;47013;42.664;23.242;2023-06-22T07:31:07;94498.06;;;25.70;61.48
61128;BME280;47013;42.664;23.242;2023-06-22T07:33:33;94504.97;;;25.80;61.54
61128;BME280;47013;42.664;23.242;2023-06-22T07:35:58;94508.53;;;25.81;62.14
61128;BME280;47013;42.664;23.242;2023-06-22T07:38:24;94506.81;;;25.89;61.94
61128;BME280;47013;42.664;23.242;2023-06-22T07:40:49;94511.94;;;25.96;63.09
61128;BME280;47013;42.664;23.242;2023-06-22T07:43:16;94508.66;;;25.98;62.87
61128;BME280;47013;42.664;23.242;2023-06-22T07:45:48;94504.19;;;26.06;63.08
61128;BME280;47013;42.664;23.242;2023-06-22T07:48:20;94515.66;;;26.19;62.30
61128;BME280;47013;42.664;23.242;2023-06-22T07:50:46;94509.13;;;26.22;62.30
61128;BME280;47013;42.664;23.242;2023-06-22T07:53:11;94513.06;;;26.10;64.55
61128;BME280;47013;42.664;23.242;2023-06-22T07:55:36;94510.13;;;26.19;64.76
61128;BME280;47013;42.664;23.242;2023-06-22T07:58:02;94506.56;;;26.19;64.36
61128;BME280;47013;42.664;23.242;2023-06-22T08:00:27;94512.41;;;26.21;63.40
61128;BME280;47013;42.664;23.242;2023-06-22T08:02:53;94506.78;;;26.15;65.92
61128;BME280;47013;42.664;23.242;2023-06-22T08:05:18;94502.22;;;26.12;65.19
61128;BME280;47013;42.664;23.242;2023-06-22T08:07:44;94505.44;;;26.05;64.07
61128;BME280;47013;42.664;23.242;2023-06-22T08:10:12;94492.13;;;26.14;63.92
61128;BME280;47013;42.664;23.242;2023-06-22T08:12:39;94497.75;;;26.20;63.42
61128;BME280;47013;42.664;23.242;2023-06-22T08:15:05;94493.72;;;26.27;62.49
61128;BME280;47013;42.664;23.242;2023-06-22T08:17:30;94489.59;;;26.16;62.22
61128;BME280;47013;42.664;23.242;2023-06-22T08:19:56;94492.66;;;26.19;62.21
61128;BME280;47013;42.664;23.242;2023-06-22T08:22:22;94492.31;;;26.37;60.80
61128;BME280;47013;42.664;23.242;2023-06-22T08:24:47;94491.41;;;26.51;61.70
61128;BME280;47013;42.664;23.242;2023-06-22T08:27:13;94493.09;;;26.43;61.30
61128;BME280;47013;42.664;23.242;2023-06-22T08:29:40;94480.78;;;26.50;62.60
61128;BME280;47013;42.664;23.242;2023-06-22T08:32:08;94484.47;;;26.72;62.34
61128;BME280;47013;42.664;23.242;2023-06-22T08:34:34;94482.00;;;26.91;61.73
61128;BME280;47013;42.664;23.242;2023-06-22T08:36:59;94482.38;;;27.10;60.36
61128;BME280;47013;42.664;23.242;2023-06-22T08:39:25;94490.03;;;27.26;61.53
61128;BME280;47013;42.664;23.242;2023-06-22T08:41:51;94484.72;;;27.28;60.80
61128;BME280;47013;42.664;23.242;2023-06-22T08:44:18;94489.28;;;27.31;58.11
61128;BME280;47013;42.664;23.242;2023-06-22T08:46:44;94487.50;;;27.28;56.42
61128;BME280;47013;42.664;23.242;2023-06-22T08:49:09;94486.41;;;27.03;58.36
61128;BME280;47013;42.664;23.242;2023-06-22T08:51:35;94486.63;;;27.00;56.40
61128;BME280;47013;42.664;23.242;2023-06-22T08:54:01;94477.09;;;27.18;57.00
61128;BME280;47013;42.664;23.242;2023-06-22T08:56:26;94477.69;;;27.39;55.28
61128;BME280;47013;42.664;23.242;2023-06-22T08:58:51;94465.56;;;27.58;55.31
61128;BME280;47013;42.664;23.242;2023-06-22T09:01:17;94466.13;;;27.68;53.69
61128;BME280;47013;42.664;23.242;2023-06-22T09:03:42;94463.34;;;27.74;52.25
61128;BME280;47013;42.664;23.242;2023-06-22T09:06:08;94462.31;;;27.99;51.46
61128;BME280;47013;42.664;23.242;2023-06-22T09:08:37;94465.13;;;28.21;46.42
61128;BME280;47013;42.664;23.242;2023-06-22T09:11:02;94458.78;;;28.38;48.94
61128;BME280;47013;42.664;23.242;2023-06-22T09:13:30;94465.13;;;28.55;46.83
61128;BME280;47013;42.664;23.242;2023-06-22T09:15:55;94468.41;;;28.65;45.70
61128;BME280;47013;42.664;23.242;2023-06-22T09:18:21;94466.84;;;28.69;46.15
61128;BME280;47013;42.664;23.242;2023-06-22T09:20:46;94467.09;;;28.71;44.26
61128;BME280;47013;42.664;23.242;2023-06-22T09:23:30;94471.13;;;28.82;44.45
61128;BME280;47013;42.664;23.242;2023-06-22T09:28:40;94460.19;;;29.00;46.56
61128;BME280;47013;42.664;23.242;2023-06-22T09:31:05;94463.53;;;28.93;45.68
61128;BME280;47013;42.664;23.242;2023-06-22T09:33:32;94474.09;;;29.12;46.38
61128;BME280;47013;42.664;23.242;2023-06-22T09:35:58;94472.50;;;29.33;45.80
61128;BME280;47013;42.664;23.242;2023-06-22T09:38:23;94469.38;;;29.42;46.60
61128;BME280;47013;42.664;23.242;2023-06-22T09:40:48;94467.06;;;29.57;47.15
61128;BME280;47013;42.664;23.242;2023-06-22T09:43:14;94469.22;;;29.76;44.56
61128;BME280;47013;42.664;23.242;2023-06-22T09:45:39;94473.47;;;29.88;44.42
61128;BME280;47013;42.664;23.242;2023-06-22T09:48:05;94470.28;;;30.08;42.58
61128;BME280;47013;42.664;23.242;2023-06-22T09:50:30;94469.00;;;30.04;42.84
61128;BME280;47013;42.664;23.242;2023-06-22T09:52:56;94465.72;;;30.05;41.01
61128;BME280;47013;42.664;23.242;2023-06-22T09:55:22;94466.78;;;29.97;41.31
61128;BME280;47013;42.664;23.242;2023-06-22T09:57:47;94457.84;;;30.09;41.05
61128;BME280;47013;42.664;23.242;2023-06-22T10:00:15;94463.03;;;30.24;41.62
61128;BME280;47013;42.664;23.242;2023-06-22T10:02:43;94464.09;;;30.45;39.66
61128;BME280;47013;42.664;23.242;2023-06-22T10:05:09;94461.13;;;30.38;40.52
61128;BME280;47013;42.664;23.242;2023-06-22T10:07:34;94462.03;;;30.51;40.45
61128;BME280;47013;42.664;23.242;2023-06-22T10:10:00;94458.09;;;30.66;37.23
61128;BME280;47013;42.664;23.242;2023-06-22T10:12:27;94459.47;;;30.53;35.59
61128;BME280;47013;42.664;23.242;2023-06-22T10:14:52;94452.94;;;30.70;37.64
61128;BME280;47013;42.664;23.242;2023-06-22T10:17:18;94448.94;;;30.60;37.34
61128;BME280;47013;42.664;23.242;2023-06-22T10:19:43;94449.16;;;30.67;39.47
61128;BME280;47013;42.664;23.242;2023-06-22T10:22:08;94450.91;;;30.95;38.42
61128;BME280;47013;42.664;23.242;2023-06-22T10:24:34;94450.19;;;31.13;36.22
61128;BME280;47013;42.664;23.242;2023-06-22T10:26:59;94451.31;;;30.80;34.84
61128;BME280;47013;42.664;23.242;2023-06-22T10:29:25;94444.38;;;30.87;37.47
61128;BME280;47013;42.664;23.242;2023-06-22T10:31:50;94442.94;;;30.99;39.17
61128;BME280;47013;42.664;23.242;2023-06-22T10:34:16;94444.53;;;31.19;35.96
61128;BME280;47013;42.664;23.242;2023-06-22T10:36:41;94450.75;;;31.30;36.57
61128;BME280;47013;42.664;23.242;2023-06-22T10:39:07;94445.66;;;31.48;34.45
61128;BME280;47013;42.664;23.242;2023-06-22T10:41:32;94441.88;;;31.45;35.37
61128;BME280;47013;42.664;23.242;2023-06-22T10:43:58;94444.59;;;31.51;35.18
61128;BME280;47013;42.664;23.242;2023-06-22T10:46:26;94439.25;;;31.53;35.24
61128;BME280;47013;42.664;23.242;2023-06-22T10:48:53;94435.69;;;31.52;36.45
61128;BME280;47013;42.664;23.242;2023-06-22T10:51:20;94430.22;;;31.60;35.94
61128;BME280;47013;42.664;23.242;2023-06-22T10:53:46;94434.16;;;31.70;34.29
61128;BME280;47013;42.664;23.242;2023-06-22T10:56:11;94428.41;;;31.81;35.43
61128;BME280;47013;42.664;23.242;2023-06-22T10:58:36;94433.69;;;31.85;34.01
61128;BME280;47013;42.664;23.242;2023-06-22T11:01:02;94425.59;;;31.81;35.55
61128;BME280;47013;42.664;23.242;2023-06-22T11:03:28;94426.47;;;31.89;35.34
61128;BME280;47013;42.664;23.242;2023-06-22T11:05:54;94430.63;;;32.02;35.22
61128;BME280;47013;42.664;23.242;2023-06-22T11:08:19;94416.47;;;31.94;35.23
61128;BME280;47013;42.664;23.242;2023-06-22T11:10:44;94423.72;;;32.03;33.62
61128;BME280;47013;42.664;23.242;2023-06-22T11:13:10;94423.63;;;32.08;36.82
61128;BME280;47013;42.664;23.242;2023-06-22T11:15:36;94420.09;;;32.21;34.11
61128;BME280;47013;42.664;23.242;2023-06-22T11:18:01;94414.88;;;32.31;32.74
61128;BME280;47013;42.664;23.242;2023-06-22T11:20:27;94418.53;;;32.39;32.80
61128;BME280;47013;42.664;23.242;2023-06-22T11:22:52;94410.91;;;32.52;32.64
61128;BME280;47013;42.664;23.242;2023-06-22T11:25:17;94417.38;;;32.61;31.77
61128;BME280;47013;42.664;23.242;2023-06-22T11:27:43;94404.09;;;32.48;30.73
61128;BME280;47013;42.664;23.242;2023-06-22T11:30:09;94411.63;;;32.40;33.32
61128;BME280;47013;42.664;23.242;2023-06-22T11:32:34;94408.63;;;32.51;33.62
61128;BME280;47013;42.664;23.242;2023-06-22T11:35:00;94407.59;;;32.22;33.06
61128;BME280;47013;42.664;23.242;2023-06-22T11:37:25;94399.38;;;32.11;33.55
61128;BME280;47013;42.664;23.242;2023-06-22T11:39:51;94400.59;;;32.28;34.12
61128;BME280;47013;42.664;23.242;2023-06-22T11:42:17;94408.56;;;32.24;33.36
61128;BME280;47013;42.664;23.242;2023-06-22T11:44:42;94401.75;;;32.20;33.52
61128;BME280;47013;42.664;23.242;2023-06-22T11:47:09;94406.41;;;32.17;34.53
61128;BME280;47013;42.664;23.242;2023-06-22T11:49:34;94404.69;;;31.82;39.35
61128;BME280;47013;42.664;23.242;2023-06-22T11:51:59;94397.34;;;31.23;45.06
61128;BME280;47013;42.664;23.242;2023-06-22T11:54:25;94390.41;;;30.86;43.66
61128;BME280;47013;42.664;23.242;2023-06-22T11:56:50;94398.97;;;30.75;45.60
61128;BME280;47013;42.664;23.242;2023-06-22T11:59:16;94398.47;;;30.46;44.83
61128;BME280;47013;42.664;23.242;2023-06-22T12:01:41;94400.34;;;30.38;46.95
61128;BME280;47013;42.664;23.242;2023-06-22T12:04:06;94402.44;;;30.02;47.49
61128;BME280;47013;42.664;23.242;2023-06-22T12:06:32;94418.44;;;30.02;47.47
61128;BME280;47013;42.664;23.242;2023-06-22T12:08:58;94411.44;;;29.89;47.03
61128;BME280;47013;42.664;23.242;2023-06-22T12:11:24;94408.78;;;29.73;50.41
61128;BME280;47013;42.664;23.242;2023-06-22T12:13:49;94422.09;;;29.55;59.61
61128;BME280;47013;42.664;23.242;2023-06-22T12:16:15;94428.34;;;29.26;58.75
61128;BME280;47013;42.664;23.242;2023-06-22T12:18:40;94428.75;;;28.94;57.72
61128;BME280;47013;42.664;23.242;2023-06-22T12:21:05;94442.28;;;28.51;53.82
61128;BME280;47013;42.664;23.242;2023-06-22T12:23:31;94433.94;;;28.12;55.27
61128;BME280;47013;42.664;23.242;2023-06-22T12:25:56;94449.66;;;27.76;54.83
61128;BME280;47013;42.664;23.242;2023-06-22T12:28:22;94447.31;;;27.52;59.35
61128;BME280;47013;42.664;23.242;2023-06-22T12:30:48;94457.38;;;27.27;62.03
61128;BME280;47013;42.664;23.242;2023-06-22T12:33:14;94462.03;;;26.87;69.60
61128;BME280;47013;42.664;23.242;2023-06-22T12:35:39;94465.66;;;26.25;74.10
61128;BME280;47013;42.664;23.242;2023-06-22T12:38:04;94454.41;;;25.50;76.07
61128;BME280;47013;42.664;23.242;2023-06-22T12:40:32;94448.94;;;24.89;78.21
61128;BME280;47013;42.664;23.242;2023-06-22T12:42:58;94426.13;;;24.24;80.27
61128;BME280;47013;42.664;23.242;2023-06-22T12:45:24;94415.34;;;23.62;83.39
61128;BME280;47013;42.664;23.242;2023-06-22T12:47:50;94413.81;;;23.31;89.69
61128;BME280;47013;42.664;23.242;2023-06-22T12:50:16;94419.50;;;22.50;90.87
61128;BME280;47013;42.664;23.242;2023-06-22T12:52:41;94421.31;;;22.29;96.41
61128;BME280;47013;42.664;23.242;2023-06-22T12:55:07;94432.16;;;22.09;100.00